Terminal Aerodrome Forecast
Issued by NWS

Home | Current Version | Previous Version | Text Only | Print | Product List | Glossary On
Versions: 1 2 3 4 5 6 7 8 9 10 11 12
594
FTUS45 KRIW 050523
TAFRKS
TAF
KRKS 050523Z 0506/0606 17008KT P6SM FEW100
     FM052000 20014G24KT P6SM SCT080 BKN150
     FM060200 16008KT P6SM SCT070 BKN120=

USA.gov is the U.S. government's official web portal to all federal, state and local government web resources and services.